Argora, Idaho
Current Conditions -  °F | °C
As of 4:53 PM on Sunday 23 Nov 2014 (Local Time) from KRXE Reporting Station
Few Clouds Few Clouds  
Wind Chill: 24°   Ceiling: Unl
Heat Index: 34°   Visibility: 10mi
Dew Point: 23°   Wind: 16mph
Humidity: 64%   Direction: 220°SW
Pressure: 30.07"   Gusts: 28mph
Location:  44.2396°N, 112.579°W
Report Text: KRXE 232353Z AUTO 22014G24KT 10SM FEW075 01/M05 A3007 RMK AO2 SLP209 T00111050 10028 20000 55006
Loading
Personal Weather Stations






























Interactive Weather Map New forecast layout! Learn more

10-Day Weather Forecast

Advertisements
Track Severe Weather on mobile